Time;durP1;ratioP1;P1;durP2;ratioP2;P2;SDS_P1;SDS_P2;PMS_P1;PMS_P2;Temp;Humidity;BMP_temperature;BMP_pressure;BME280_temperature;BME280_humidity;BME280_pressure;Samples;Min_cycle;Max_cycle;Signal;HPM_P1;HPM_P2
2023/11/12 00:00:41;;;;;;;5.20;4.20;;;;;;;6.58;67.18;95497.09;5051900;28;20206;-70
2023/11/12 00:03:07;;;;;;;6.50;5.90;;;;;;;6.65;67.07;95492.47;5049114;28;20429;-70
2023/11/12 00:05:32;;;;;;;9.13;4.70;;;;;;;6.60;67.27;95489.22;5037517;28;20180;-71
2023/11/12 00:07:57;;;;;;;6.23;5.23;;;;;;;6.39;67.78;95487.53;5038517;28;20712;-72
2023/11/12 00:10:23;;;;;;;6.00;4.90;;;;;;;6.44;67.27;95491.63;5039209;28;20183;-69
2023/11/12 00:12:48;;;;;;;5.43;4.80;;;;;;;6.31;68.26;95493.09;5042912;28;20277;-70
2023/11/12 00:15:14;;;;;;;7.73;5.40;;;;;;;6.22;68.04;95486.50;5046686;28;20188;-71
2023/11/12 00:17:42;;;;;;;16.13;6.13;;;;;;;6.14;68.63;95475.53;5047655;28;20673;-71
2023/11/12 00:20:12;;;;;;;13.90;8.13;;;;;;;6.09;69.17;95491.34;5046144;28;20226;-68
2023/11/12 00:22:38;;;;;;;8.00;5.23;;;;;;;6.18;68.56;95476.25;5046836;28;20465;-70
2023/11/12 00:25:03;;;;;;;9.43;4.63;;;;;;;6.26;68.48;95487.19;5039023;28;20462;-70
2023/11/12 00:27:29;;;;;;;12.83;5.13;;;;;;;6.21;68.37;95474.34;5039418;28;20178;-71
2023/11/12 00:29:54;;;;;;;4.80;4.20;;;;;;;6.14;68.40;95475.53;5034572;28;20195;-68
2023/11/12 00:32:19;;;;;;;4.90;4.13;;;;;;;6.23;67.85;95466.47;5033223;28;20185;-70
2023/11/12 00:34:45;;;;;;;5.63;4.57;;;;;;;6.13;68.25;95479.03;5039178;28;20287;-68
2023/11/12 00:37:10;;;;;;;5.40;4.90;;;;;;;6.08;68.71;95481.00;5043871;28;20170;-72
2023/11/12 00:39:36;;;;;;;5.03;4.53;;;;;;;5.94;69.05;95473.75;5043746;28;20206;-70
2023/11/12 00:42:02;;;;;;;6.63;4.60;;;;;;;5.87;69.31;95470.50;5034607;28;20663;-68
2023/11/12 00:44:27;;;;;;;6.80;4.00;;;;;;;6.02;69.01;95465.59;5033892;28;21033;-68
2023/11/12 00:46:53;;;;;;;4.73;4.00;;;;;;;5.89;69.22;95471.28;5035602;28;20529;-68
2023/11/12 00:49:18;;;;;;;6.57;4.63;;;;;;;5.96;69.01;95468.47;5038482;28;20179;-70
2023/11/12 00:51:44;;;;;;;4.97;4.47;;;;;;;5.89;69.59;95457.44;5028208;28;20614;-72
2023/11/12 00:54:10;;;;;;;4.90;4.40;;;;;;;5.87;69.26;95456.66;5039894;28;20210;-70
2023/11/12 00:56:36;;;;;;;9.53;4.23;;;;;;;6.05;69.23;95461.13;5038647;28;20247;-70
2023/11/12 00:59:01;;;;;;;4.87;4.40;;;;;;;5.73;68.94;95459.78;5041403;28;20241;-67
2023/11/12 01:01:26;;;;;;;6.67;5.97;;;;;;;5.69;69.89;95463.41;5037668;28;20203;-71
2023/11/12 01:03:52;;;;;;;4.77;3.90;;;;;;;5.70;69.92;95458.16;5027740;28;20194;-72
2023/11/12 01:06:18;;;;;;;3.57;3.27;;;;;;;5.75;69.50;95457.16;5033208;28;20183;-69
2023/11/12 01:08:43;;;;;;;6.57;5.90;;;;;;;5.80;69.55;95461.25;5026337;28;20968;-68
2023/11/12 01:11:08;;;;;;;5.03;4.53;;;;;;;5.79;69.56;95459.56;5035122;28;20201;-70
2023/11/12 01:13:34;;;;;;;4.23;3.40;;;;;;;5.96;69.10;95458.91;5035510;28;20222;-70
2023/11/12 01:16:00;;;;;;;6.97;4.33;;;;;;;5.89;69.23;95455.66;5027183;28;20190;-69
2023/11/12 01:18:26;;;;;;;11.43;4.10;;;;;;;6.01;69.18;95453.50;5031581;28;20281;-68
2023/11/12 01:20:51;;;;;;;7.63;4.63;;;;;;;6.00;68.95;95447.47;5042229;28;20866;-69
2023/11/12 01:23:17;;;;;;;4.90;3.43;;;;;;;5.98;68.76;95453.66;5041421;28;20979;-70
2023/11/12 01:25:42;;;;;;;4.60;4.20;;;;;;;5.88;69.36;95445.31;5041878;28;20179;-69
2023/11/12 01:28:10;;;;;;;10.70;3.77;;;;;;;6.01;69.03;95432.69;5036656;28;20179;-69
2023/11/12 01:30:36;;;;;;;5.93;3.83;;;;;;;5.98;68.74;95440.63;5032947;28;20198;-70
2023/11/12 01:33:02;;;;;;;6.27;4.80;;;;;;;6.09;68.60;95446.22;5039519;28;20433;-70
2023/11/12 01:35:28;;;;;;;4.10;3.80;;;;;;;5.89;68.97;95450.47;5037085;28;20183;-68
2023/11/12 01:37:53;;;;;;;5.00;3.90;;;;;;;5.90;69.37;95436.50;5033308;28;20476;-69
2023/11/12 01:40:20;;;;;;;4.40;3.87;;;;;;;5.84;69.53;95446.38;5030723;28;20198;-70
2023/11/12 01:42:45;;;;;;;5.30;3.87;;;;;;;5.90;69.44;95433.91;5033717;28;20184;-69
2023/11/12 01:45:12;;;;;;;5.90;4.47;;;;;;;5.96;69.45;95432.03;5039582;28;20456;-69
2023/11/12 01:47:40;;;;;;;4.20;3.90;;;;;;;5.93;69.16;95425.16;5028383;28;20176;-69
2023/11/12 01:50:08;;;;;;;5.03;3.37;;;;;;;5.97;69.33;95425.91;5027559;28;20453;-69
2023/11/12 01:52:36;;;;;;;4.20;3.80;;;;;;;5.93;69.78;95419.94;5036175;28;20444;-70
2023/11/12 01:55:04;;;;;;;7.77;3.80;;;;;;;5.89;69.69;95415.78;5036510;28;20445;-69
2023/11/12 01:57:33;;;;;;;4.70;3.37;;;;;;;5.95;69.78;95418.13;5036027;28;20509;-69
2023/11/12 01:59:59;;;;;;;5.67;3.60;;;;;;;5.79;70.32;95412.69;5027521;28;21080;-68
2023/11/12 02:02:31;;;;;;;5.07;3.23;;;;;;;5.76;70.16;95407.59;5038733;28;20433;-69
2023/11/12 02:04:56;;;;;;;4.23;3.50;;;;;;;5.69;70.69;95414.84;5038311;28;21354;-69
2023/11/12 02:07:22;;;;;;;4.53;3.23;;;;;;;5.77;70.36;95398.91;5045200;28;20554;-70
2023/11/12 02:09:52;;;;;;;5.33;3.30;;;;;;;5.93;69.82;95402.56;5038777;28;20551;-70
2023/11/12 02:12:17;;;;;;;6.63;3.40;;;;;;;5.88;69.62;95399.31;5039819;28;20749;-71
2023/11/12 02:14:43;;;;;;;4.97;3.23;;;;;;;5.92;69.52;95403.47;5038696;28;20639;-69
2023/11/12 02:17:08;;;;;;;6.33;4.07;;;;;;;5.96;69.57;95404.22;5041967;28;20209;-70
2023/11/12 02:19:34;;;;;;;8.50;4.23;;;;;;;5.96;69.59;95400.78;5038942;28;20295;-71
2023/11/12 02:21:59;;;;;;;6.20;3.70;;;;;;;5.86;69.87;95402.88;5036727;28;20183;-69
2023/11/12 02:24:25;;;;;;;8.00;3.83;;;;;;;5.76;69.97;95396.34;5033855;28;20179;-71
2023/11/12 02:26:51;;;;;;;3.93;3.53;;;;;;;5.68;70.53;95394.91;5037277;28;20263;-70
2023/11/12 02:29:17;;;;;;;3.77;3.37;;;;;;;5.58;70.62;95408.38;5044835;28;20630;-70
2023/11/12 02:31:43;;;;;;;7.97;3.40;;;;;;;5.57;70.49;95394.50;5031442;28;20438;-70
2023/11/12 02:34:08;;;;;;;5.50;3.50;;;;;;;5.60;70.94;95388.31;5038237;28;20269;-68
2023/11/12 02:36:35;;;;;;;3.93;3.07;;;;;;;5.61;70.48;95400.44;5036170;28;20175;-69
2023/11/12 02:39:03;;;;;;;4.00;3.40;;;;;;;5.57;70.75;95399.69;5042083;28;20200;-69
2023/11/12 02:41:30;;;;;;;11.53;3.90;;;;;;;5.73;70.22;95402.53;5039857;28;20556;-68
2023/11/12 02:43:55;;;;;;;3.40;3.10;;;;;;;5.66;70.42;95390.69;5030929;28;20948;-71
2023/11/12 02:46:22;;;;;;;5.03;3.90;;;;;;;5.68;70.26;95392.31;5033033;28;20463;-68
2023/11/12 02:49:07;;;;;;;6.73;3.90;;;;;;;5.62;70.85;95384.75;5042997;28;20507;-70
2023/11/12 02:51:33;;;;;;;5.30;3.80;;;;;;;5.75;70.13;95376.44;5038098;28;20445;-70
2023/11/12 02:53:59;;;;;;;4.20;3.63;;;;;;;5.59;70.89;95365.81;5043016;28;20463;-68
2023/11/12 02:56:24;;;;;;;3.50;3.20;;;;;;;5.53;70.83;95364.31;5032722;28;20190;-68
2023/11/12 02:58:50;;;;;;;4.23;3.20;;;;;;;5.65;70.49;95371.63;5038088;28;20199;-71
2023/11/12 03:01:15;;;;;;;4.13;3.67;;;;;;;5.68;70.26;95362.84;5044505;28;20210;-70
2023/11/12 03:03:41;;;;;;;5.03;3.70;;;;;;;5.50;70.68;95370.50;5044796;28;20203;-70
2023/11/12 03:06:07;;;;;;;4.20;3.60;;;;;;;5.49;71.03;95367.94;5036124;28;20665;-68
2023/11/12 03:08:32;;;;;;;3.93;3.53;;;;;;;5.46;70.80;95355.06;5037835;28;20171;-69
2023/11/12 03:10:58;;;;;;;5.87;3.60;;;;;;;5.45;70.78;95349.00;5037751;28;20207;-69
2023/11/12 03:13:23;;;;;;;5.67;3.90;;;;;;;5.45;70.67;95354.19;5044007;28;20171;-69
2023/11/12 03:15:49;;;;;;;3.97;3.57;;;;;;;5.49;70.68;95350.56;5044936;28;20540;-69
2023/11/12 03:18:14;;;;;;;13.83;4.10;;;;;;;5.28;70.80;95349.69;5032668;28;20259;-69
2023/11/12 03:20:41;;;;;;;7.83;3.67;;;;;;;5.15;70.99;95340.69;5034279;28;20229;-69
2023/11/12 03:23:07;;;;;;;4.73;3.10;;;;;;;5.12;71.24;95340.78;5043301;28;20437;-69
2023/11/12 03:25:32;;;;;;;4.60;3.50;;;;;;;5.11;71.55;95335.66;5043849;28;20178;-71
2023/11/12 03:27:58;;;;;;;5.23;3.30;;;;;;;5.27;70.93;95321.16;5031995;28;20196;-69
2023/11/12 03:30:24;;;;;;;8.60;3.97;;;;;;;5.34;70.75;95316.50;5039217;28;20209;-70
2023/11/12 03:32:49;;;;;;;4.07;3.67;;;;;;;5.35;70.63;95307.81;5040978;28;20437;-67
2023/11/12 03:35:14;;;;;;;9.80;4.23;;;;;;;5.24;70.79;95303.91;5044359;28;20254;-70
2023/11/12 03:37:40;;;;;;;6.10;4.27;;;;;;;5.37;70.38;95301.66;5044623;28;20197;-71
2023/11/12 03:40:06;;;;;;;4.87;3.57;;;;;;;5.30;70.25;95300.19;5031516;28;20211;-68
2023/11/12 03:42:31;;;;;;;7.17;4.20;;;;;;;5.16;70.19;95300.75;5038518;28;20299;-66
2023/11/12 03:44:57;;;;;;;4.87;3.70;;;;;;;5.09;70.09;95304.50;5032356;28;20552;-69
2023/11/12 03:47:23;;;;;;;3.43;3.13;;;;;;;5.12;70.79;95306.97;5042649;28;20722;-70
2023/11/12 03:49:48;;;;;;;5.47;3.67;;;;;;;5.18;69.98;95293.75;5037115;28;20298;-69
2023/11/12 03:52:14;;;;;;;4.90;3.10;;;;;;;5.15;70.91;95295.59;5030974;28;20807;-67
2023/11/12 03:54:40;;;;;;;4.50;3.50;;;;;;;5.15;70.87;95296.47;5031225;28;20725;-69
2023/11/12 03:57:05;;;;;;;7.63;4.23;;;;;;;5.14;70.66;95289.56;5041870;28;20201;-68
2023/11/12 03:59:31;;;;;;;7.37;4.13;;;;;;;5.25;70.49;95284.78;5031278;28;20855;-69
2023/11/12 04:01:56;;;;;;;5.73;3.53;;;;;;;5.11;70.40;95289.69;5035596;28;20190;-70
2023/11/12 04:04:22;;;;;;;4.10;3.23;;;;;;;5.12;70.28;95282.75;5033334;28;20961;-69
2023/11/12 04:06:47;;;;;;;3.33;2.90;;;;;;;5.01;70.79;95276.22;5038731;28;20196;-68
2023/11/12 04:09:12;;;;;;;5.17;3.87;;;;;;;4.99;70.79;95269.41;5036537;28;20258;-70
2023/11/12 04:11:40;;;;;;;4.13;3.73;;;;;;;5.13;70.43;95272.28;5031096;28;20191;-66
2023/11/12 04:14:07;;;;;;;6.20;4.07;;;;;;;5.06;70.88;95273.44;5042624;28;20213;-69
2023/11/12 04:16:34;;;;;;;5.33;4.00;;;;;;;4.89;71.56;95268.91;5034027;28;20429;-70
2023/11/12 04:19:01;;;;;;;5.13;3.60;;;;;;;5.07;70.59;95269.91;5042042;28;20475;-71
2023/11/12 04:21:26;;;;;;;5.33;4.50;;;;;;;5.06;70.93;95268.25;5041015;28;21264;-70
2023/11/12 04:23:52;;;;;;;4.70;3.40;;;;;;;4.96;71.09;95272.97;5026536;28;20441;-70
2023/11/12 04:26:17;;;;;;;14.47;4.57;;;;;;;4.93;70.49;95264.44;5036510;28;20263;-69
2023/11/12 04:28:42;;;;;;;11.13;4.67;;;;;;;5.00;70.85;95273.69;5042938;28;20887;-68
2023/11/12 04:31:08;;;;;;;5.53;3.90;;;;;;;4.51;71.40;95273.00;5043183;28;20686;-68
2023/11/12 04:33:33;;;;;;;6.00;3.70;;;;;;;4.36;71.24;95264.03;5037698;28;20190;-68
2023/11/12 04:35:59;;;;;;;10.30;4.23;;;;;;;4.09;72.88;95255.53;5041094;28;20182;-70
2023/11/12 04:38:25;;;;;;;5.67;4.17;;;;;;;4.12;72.73;95252.81;5034439;28;20286;-67
2023/11/12 04:40:50;;;;;;;5.10;4.07;;;;;;;4.38;71.21;95246.66;5039206;28;20207;-70
2023/11/12 04:43:16;;;;;;;5.13;4.17;;;;;;;4.43;71.40;95244.72;5039720;28;20592;-70
2023/11/12 04:45:42;;;;;;;7.30;4.80;;;;;;;4.33;71.20;95240.78;5026000;28;20310;-68
2023/11/12 04:48:07;;;;;;;5.07;4.13;;;;;;;4.34;71.59;95245.06;5032909;28;20189;-70
2023/11/12 04:50:33;;;;;;;5.90;4.10;;;;;;;4.42;71.05;95243.03;5035498;28;20469;-69
2023/11/12 04:52:59;;;;;;;4.50;4.10;;;;;;;4.49;71.37;95236.69;5009041;28;20292;-70
2023/11/12 04:55:24;;;;;;;11.13;4.20;;;;;;;4.52;71.17;95238.34;5031802;28;20177;-70
2023/11/12 04:57:49;;;;;;;14.40;4.13;;;;;;;4.60;70.53;95234.50;5026558;28;20617;-69
2023/11/12 05:00:16;;;;;;;10.23;4.63;;;;;;;4.70;70.55;95240.22;5026377;28;20556;-68
2023/11/12 05:02:42;;;;;;;6.23;4.70;;;;;;;4.72;70.96;95240.13;5026448;28;20184;-69
2023/11/12 05:05:08;;;;;;;5.00;4.53;;;;;;;4.74;71.01;95244.38;5026347;28;20558;-68
2023/11/12 05:07:33;;;;;;;5.00;3.83;;;;;;;4.61;70.65;95248.38;5026584;28;20602;-68
2023/11/12 05:09:58;;;;;;;5.13;4.13;;;;;;;4.56;70.70;95250.28;5026179;28;20445;-69
2023/11/12 05:12:24;;;;;;;9.30;5.67;;;;;;;4.66;70.93;95251.63;5026920;28;20214;-69
2023/11/12 05:14:50;;;;;;;5.70;4.03;;;;;;;4.72;70.56;95253.97;5024962;28;20530;-71
2023/11/12 05:17:15;;;;;;;5.50;4.90;;;;;;;4.74;70.52;95246.97;5029324;28;20521;-71
2023/11/12 05:19:40;;;;;;;7.17;4.67;;;;;;;4.81;70.47;95252.78;5030814;28;20218;-69
2023/11/12 05:22:06;;;;;;;5.60;4.43;;;;;;;4.71;70.76;95249.69;5034075;28;20581;-70
2023/11/12 05:24:31;;;;;;;7.97;4.87;;;;;;;4.67;71.24;95248.94;5031790;28;20291;-70
2023/11/12 05:26:57;;;;;;;6.57;4.90;;;;;;;4.71;70.78;95251.44;5025378;28;20183;-70
2023/11/12 05:29:22;;;;;;;9.60;5.40;;;;;;;4.81;70.51;95240.63;5025444;28;20176;-70
2023/11/12 05:31:47;;;;;;;6.30;4.80;;;;;;;4.82;70.30;95251.88;5025261;28;20976;-70
2023/11/12 05:34:14;;;;;;;6.27;5.10;;;;;;;4.83;70.29;95253.56;5031884;28;20554;-69
2023/11/12 05:36:40;;;;;;;7.37;5.50;;;;;;;4.85;70.15;95252.59;5036043;28;20197;-71
2023/11/12 05:39:05;;;;;;;7.13;4.63;;;;;;;4.87;70.06;95255.13;5038331;28;20893;-70
2023/11/12 05:41:30;;;;;;;8.00;5.37;;;;;;;4.88;69.79;95246.41;5029346;28;20731;-68
2023/11/12 05:43:56;;;;;;;5.80;5.23;;;;;;;4.80;69.24;95243.28;5025573;28;20258;-69
2023/11/12 05:46:21;;;;;;;7.83;5.80;;;;;;;4.86;68.95;95241.28;5029080;28;20240;-69
2023/11/12 05:48:47;;;;;;;6.30;5.40;;;;;;;5.05;67.84;95245.72;5028857;28;20168;-70
2023/11/12 05:51:12;;;;;;;7.30;5.30;;;;;;;4.94;67.94;95251.38;5025471;28;20197;-70
2023/11/12 05:53:37;;;;;;;12.27;6.20;;;;;;;4.97;67.86;95255.59;5025758;28;20175;-69
2023/11/12 05:56:03;;;;;;;10.20;5.17;;;;;;;4.76;68.10;95250.34;5025251;28;20184;-70
2023/11/12 05:58:29;;;;;;;5.97;4.53;;;;;;;4.65;68.83;95253.38;5032459;28;20199;-69
2023/11/12 06:00:55;;;;;;;10.60;5.03;;;;;;;4.76;68.68;95247.75;5028505;28;20199;-69
2023/11/12 06:03:23;;;;;;;33.77;7.63;;;;;;;4.67;68.80;95253.31;5030366;28;21184;-68
2023/11/12 06:05:49;;;;;;;21.90;6.77;;;;;;;4.42;69.80;95259.47;5032485;28;20176;-70
2023/11/12 06:08:14;;;;;;;11.37;5.97;;;;;;;4.16;70.77;95267.41;5035916;28;20414;-70
2023/11/12 06:10:43;;;;;;;10.53;6.40;;;;;;;4.14;70.65;95269.19;5031651;28;20210;-69
2023/11/12 06:13:09;;;;;;;13.17;5.17;;;;;;;4.38;70.33;95278.66;5036183;28;20175;-70
2023/11/12 06:15:35;;;;;;;16.00;5.83;;;;;;;4.59;69.34;95279.59;5039391;28;20452;-70
2023/11/12 06:18:00;;;;;;;9.37;5.10;;;;;;;3.63;72.57;95293.50;5038620;28;20407;-70
2023/11/12 06:20:27;;;;;;;6.87;5.47;;;;;;;3.75;72.94;95287.88;5027709;28;20218;-69
2023/11/12 06:22:53;;;;;;;5.63;4.90;;;;;;;3.58;73.19;95286.72;5028505;28;20270;-69
2023/11/12 06:25:18;;;;;;;7.00;4.70;;;;;;;3.73;73.16;95297.47;5044438;28;20567;-69
2023/11/12 06:27:43;;;;;;;8.63;5.27;;;;;;;4.03;72.11;95292.94;5045961;28;20258;-68
2023/11/12 06:30:09;;;;;;;13.13;5.90;;;;;;;4.14;71.39;95300.34;5045254;28;20189;-68
2023/11/12 06:32:35;;;;;;;7.03;5.23;;;;;;;4.44;70.29;95291.44;5039979;28;20171;-71
2023/11/12 06:35:00;;;;;;;10.57;5.87;;;;;;;4.08;70.76;95295.38;5024528;28;20198;-70
2023/11/12 06:37:26;;;;;;;6.90;5.00;;;;;;;4.03;71.56;95293.78;5025495;28;20176;-70
2023/11/12 06:39:52;;;;;;;12.63;5.70;;;;;;;4.23;71.24;95294.81;5025384;28;20582;-70
2023/11/12 06:42:17;;;;;;;9.43;5.70;;;;;;;4.39;70.25;95295.97;5025056;28;20418;-68
2023/11/12 06:44:43;;;;;;;10.93;7.17;;;;;;;4.40;70.02;95297.63;5024563;28;20175;-71
2023/11/12 06:47:09;;;;;;;7.43;5.13;;;;;;;4.15;71.40;95302.03;5027878;28;20504;-68
2023/11/12 06:49:34;;;;;;;7.73;5.50;;;;;;;4.14;71.05;95310.75;5029058;28;20192;-69
2023/11/12 06:52:00;;;;;;;8.20;5.27;;;;;;;4.41;70.48;95317.50;5028478;28;20164;-69
2023/11/12 06:54:25;;;;;;;7.80;5.97;;;;;;;4.60;70.25;95317.66;5028445;28;20167;-70
2023/11/12 06:56:51;;;;;;;10.90;6.10;;;;;;;4.82;69.45;95317.69;5027556;28;20171;-70
2023/11/12 06:59:16;;;;;;;12.10;5.83;;;;;;;5.00;68.64;95318.72;5029563;28;20199;-69
2023/11/12 07:01:42;;;;;;;9.80;6.10;;;;;;;5.10;68.37;95319.19;5048142;28;20170;-68
2023/11/12 07:04:10;;;;;;;8.50;6.00;;;;;;;5.05;68.77;95315.94;5039350;28;20176;-70
2023/11/12 07:06:35;;;;;;;13.77;6.30;;;;;;;5.05;68.31;95324.56;5037814;28;20185;-71
2023/11/12 07:09:01;;;;;;;12.70;6.17;;;;;;;5.00;68.51;95321.31;5033359;28;20425;-70
2023/11/12 07:11:26;;;;;;;9.03;6.57;;;;;;;5.14;68.28;95315.56;5029847;28;20236;-70
2023/11/12 07:13:51;;;;;;;9.23;6.63;;;;;;;5.04;68.61;95322.06;5032970;28;20187;-71
2023/11/12 07:16:17;;;;;;;8.80;5.57;;;;;;;5.22;67.64;95310.94;5035411;28;20710;-70
2023/11/12 07:18:44;;;;;;;8.83;5.20;;;;;;;5.22;67.92;95313.53;5034100;28;20604;-69
2023/11/12 07:21:09;;;;;;;9.10;6.30;;;;;;;4.99;68.85;95316.19;5035058;28;20816;-68
2023/11/12 07:23:39;;;;;;;8.93;6.13;;;;;;;5.05;68.01;95315.94;5033784;28;20438;-68
2023/11/12 07:26:05;;;;;;;7.30;5.97;;;;;;;5.18;67.86;95316.31;5027167;28;20179;-68
2023/11/12 07:28:30;;;;;;;9.60;6.23;;;;;;;5.02;68.19;95329.91;5030994;28;20438;-70
2023/11/12 07:30:56;;;;;;;7.30;6.00;;;;;;;5.29;67.23;95340.97;5036423;28;20512;-68
2023/11/12 07:33:21;;;;;;;7.97;5.67;;;;;;;5.00;68.36;95343.88;5038559;28;20175;-68
2023/11/12 07:35:49;;;;;;;6.63;6.00;;;;;;;5.08;67.56;95342.69;5034733;28;20183;-69
2023/11/12 07:38:15;;;;;;;10.90;6.30;;;;;;;5.07;68.07;95358.34;5043488;28;20239;-69
2023/11/12 07:40:41;;;;;;;63.37;12.77;;;;;;;5.04;68.14;95367.09;5038721;28;20465;-70
2023/11/12 07:43:07;;;;;;;17.07;6.77;;;;;;;4.90;68.70;95361.59;5038753;28;20201;-70
2023/11/12 07:45:33;;;;;;;17.07;6.17;;;;;;;5.00;69.18;95364.69;5035459;28;20832;-70
2023/11/12 07:47:59;;;;;;;10.03;6.67;;;;;;;5.07;69.01;95372.16;5030801;28;20441;-68
2023/11/12 07:50:25;;;;;;;14.27;7.20;;;;;;;5.25;68.19;95368.00;5044329;28;20191;-69
2023/11/12 07:52:50;;;;;;;11.27;6.10;;;;;;;5.36;67.98;95371.94;5029858;28;20491;-70
2023/11/12 07:55:16;;;;;;;11.40;7.00;;;;;;;4.98;69.59;95374.28;5033724;28;20183;-68
2023/11/12 07:57:42;;;;;;;13.43;9.30;;;;;;;4.96;69.95;95368.28;5035173;28;20604;-69
2023/11/12 08:00:11;;;;;;;18.13;10.57;;;;;;;5.19;69.29;95370.84;5039766;28;20560;-67
2023/11/12 08:02:39;;;;;;;12.80;8.53;;;;;;;5.21;68.82;95376.00;5033427;28;20189;-70
2023/11/12 08:05:08;;;;;;;18.23;8.80;;;;;;;5.37;68.50;95373.66;5032231;28;20434;-68
2023/11/12 08:07:35;;;;;;;13.07;7.47;;;;;;;5.49;68.60;95378.34;5033336;28;20551;-69
2023/11/12 08:10:04;;;;;;;14.83;7.17;;;;;;;5.49;68.63;95383.56;5031647;28;20457;-69
2023/11/12 08:12:29;;;;;;;19.80;8.40;;;;;;;5.50;68.06;95380.91;5027380;28;20434;-69
2023/11/12 08:14:54;;;;;;;11.30;8.20;;;;;;;5.44;69.13;95378.53;5035896;28;20483;-70
2023/11/12 08:17:20;;;;;;;13.50;8.37;;;;;;;5.57;69.17;95384.06;5025561;28;20194;-66
2023/11/12 08:19:46;;;;;;;16.97;10.60;;;;;;;5.72;68.54;95378.25;5031510;28;20210;-70
2023/11/12 08:22:11;;;;;;;14.17;8.70;;;;;;;5.85;68.36;95375.16;5026418;28;20176;-68
2023/11/12 08:24:36;;;;;;;13.93;8.97;;;;;;;5.76;68.92;95380.72;5030068;28;20178;-68
2023/11/12 08:27:04;;;;;;;15.00;9.70;;;;;;;5.65;69.21;95381.19;5036191;28;20170;-69
2023/11/12 08:29:31;;;;;;;17.57;8.63;;;;;;;5.58;69.72;95380.59;5032043;28;20191;-69
2023/11/12 08:31:57;;;;;;;18.50;9.37;;;;;;;5.81;69.03;95383.97;5028421;28;20476;-69
2023/11/12 08:34:23;;;;;;;12.77;8.83;;;;;;;5.77;68.93;95383.28;5030786;28;20467;-70
2023/11/12 08:36:49;;;;;;;15.43;8.77;;;;;;;5.58;70.13;95392.75;5023039;28;20434;-68
2023/11/12 08:39:16;;;;;;;20.60;10.03;;;;;;;5.34;71.22;95387.63;5022339;28;20203;-69
2023/11/12 08:41:46;;;;;;;18.63;9.67;;;;;;;5.45;71.34;95387.19;5004897;28;20435;-68
2023/11/12 08:44:11;;;;;;;19.73;10.83;;;;;;;5.58;71.33;95388.38;5013290;28;20969;-67
2023/11/12 08:46:36;;;;;;;17.63;11.63;;;;;;;5.61;71.25;95379.59;5014942;28;20469;-69
2023/11/12 08:49:04;;;;;;;18.87;10.40;;;;;;;5.59;71.03;95390.06;5018787;28;20184;-68
2023/11/12 08:51:30;;;;;;;18.50;11.17;;;;;;;5.56;71.80;95392.81;5019358;28;20290;-69
2023/11/12 08:53:55;;;;;;;19.90;12.50;;;;;;;5.60;71.94;95388.31;5014610;28;20505;-70
2023/11/12 08:56:21;;;;;;;18.37;10.30;;;;;;;5.61;71.61;95385.66;5019208;28;20190;-67
2023/11/12 08:58:46;;;;;;;16.00;9.70;;;;;;;5.54;72.02;95391.19;5018820;28;20294;-68
2023/11/12 09:01:12;;;;;;;17.07;9.10;;;;;;;5.26;72.62;95397.47;5022226;28;20702;-69
2023/11/12 09:03:37;;;;;;;16.70;9.70;;;;;;;5.54;71.67;95402.44;5022962;28;20205;-69
2023/11/12 09:06:04;;;;;;;15.73;8.03;;;;;;;5.62;71.43;95408.19;5014413;28;20269;-66
2023/11/12 09:08:30;;;;;;;20.97;10.43;;;;;;;5.50;71.63;95406.06;5014389;28;20183;-67
2023/11/12 09:10:55;;;;;;;17.60;10.47;;;;;;;5.35;72.30;95407.50;5018757;28;20509;-69
2023/11/12 09:13:21;;;;;;;18.53;9.60;;;;;;;5.29;72.57;95413.81;5019201;28;20560;-70
2023/11/12 09:15:47;;;;;;;18.07;9.60;;;;;;;5.42;72.33;95401.16;5021464;28;20864;-69
2023/11/12 09:18:12;;;;;;;18.13;10.70;;;;;;;5.64;71.81;95413.31;5011192;28;20361;-69
2023/11/12 09:20:37;;;;;;;16.70;10.17;;;;;;;5.52;71.71;95406.84;5027230;28;20208;-70
2023/11/12 09:23:03;;;;;;;14.63;9.53;;;;;;;5.45;72.18;95410.59;5027892;28;20203;-70
2023/11/12 09:25:28;;;;;;;13.70;9.67;;;;;;;5.48;71.84;95416.53;5038598;28;20260;-70
2023/11/12 09:27:55;;;;;;;13.90;8.87;;;;;;;5.41;72.36;95414.22;5021996;28;20215;-70
2023/11/12 09:30:22;;;;;;;11.40;8.77;;;;;;;5.43;72.35;95417.63;5018920;28;20199;-72
2023/11/12 09:32:47;;;;;;;13.30;8.87;;;;;;;5.17;73.10;95429.03;5023569;28;20562;-71
2023/11/12 09:35:14;;;;;;;16.50;10.50;;;;;;;5.19;73.55;95428.06;5036211;28;20437;-70
2023/11/12 09:37:40;;;;;;;17.53;9.47;;;;;;;4.93;74.65;95431.66;5040562;28;20209;-70
2023/11/12 09:40:10;;;;;;;40.40;11.70;;;;;;;5.44;73.46;95425.38;5025468;28;21281;-69
2023/11/12 09:42:38;;;;;;;41.40;11.57;;;;;;;5.57;72.14;95425.72;5026733;28;20176;-73
2023/11/12 09:45:08;;;;;;;16.00;10.50;;;;;;;5.81;71.66;95428.25;5022249;28;20516;-71
2023/11/12 09:47:46;;;;;;;24.00;9.80;;;;;;;5.62;72.43;95426.41;5014996;28;20442;-70
2023/11/12 09:50:12;;;;;;;17.23;11.90;;;;;;;5.54;72.49;95420.66;5008565;28;20460;-70
2023/11/12 09:52:37;;;;;;;21.97;11.67;;;;;;;5.60;72.66;95419.53;5018191;28;20438;-70
2023/11/12 09:55:05;;;;;;;15.07;9.43;;;;;;;5.87;71.65;95417.59;5007335;28;20192;-69
2023/11/12 09:57:30;;;;;;;19.57;10.67;;;;;;;5.93;71.33;95422.56;5011854;28;20184;-73
2023/11/12 09:59:56;;;;;;;13.10;9.70;;;;;;;5.87;71.21;95425.41;5011485;28;20864;-70
2023/11/12 10:02:23;;;;;;;16.53;9.70;;;;;;;5.83;70.98;95435.06;5016788;28;20191;-70
2023/11/12 10:04:57;;;;;;;23.23;11.20;;;;;;;5.90;71.07;95438.28;5010443;28;20803;-71
2023/11/12 10:07:24;;;;;;;24.60;10.90;;;;;;;5.98;70.24;95433.66;5008945;28;20428;-69
2023/11/12 10:09:49;;;;;;;23.43;11.27;;;;;;;5.93;71.04;95436.41;5017696;28;20451;-68
2023/11/12 10:12:14;;;;;;;22.63;11.70;;;;;;;5.80;71.59;95439.56;5015895;28;20439;-70
2023/11/12 10:14:41;;;;;;;17.57;11.23;;;;;;;5.91;71.18;95433.03;5016146;28;20195;-72
2023/11/12 10:17:10;;;;;;;29.63;13.80;;;;;;;5.90;71.90;95435.69;5018832;28;20272;-70
2023/11/12 10:19:37;;;;;;;32.77;11.17;;;;;;;6.06;71.58;95428.97;5012459;28;21025;-71
2023/11/12 10:22:03;;;;;;;30.33;12.47;;;;;;;5.99;71.41;95430.13;5021918;28;20753;-73
2023/11/12 10:24:30;;;;;;;20.13;12.47;;;;;;;6.06;70.99;95425.50;5022956;28;20472;-71
2023/11/12 10:27:04;;;;;;;21.00;12.40;;;;;;;6.08;71.13;95427.16;5016540;28;20439;-70
2023/11/12 10:29:30;;;;;;;20.13;11.20;;;;;;;6.30;70.21;95436.66;5009946;28;20453;-72
2023/11/12 10:31:57;;;;;;;18.63;11.40;;;;;;;6.23;70.62;95435.22;5021182;28;20429;-72
2023/11/12 10:34:24;;;;;;;29.20;12.23;;;;;;;6.26;71.00;95435.94;5024635;28;20179;-73
2023/11/12 10:37:10;;;;;;;29.90;12.87;;;;;;;6.27;70.83;95434.19;5025413;28;20495;-69
2023/11/12 10:39:43;;;;;;;19.00;11.97;;;;;;;6.20;70.62;95432.75;5020863;28;20488;-71
2023/11/12 10:42:26;;;;;;;20.17;11.20;;;;;;;6.18;70.48;95429.38;5018840;28;20908;-69
2023/11/12 10:44:59;;;;;;;25.60;12.50;;;;;;;6.33;70.28;95420.88;5011138;28;20432;-71
2023/11/12 10:47:32;;;;;;;30.20;14.93;;;;;;;6.40;69.82;95416.25;5017041;28;20448;-69
2023/11/12 10:49:58;;;;;;;37.90;13.83;;;;;;;6.45;70.27;95419.50;5015762;28;20458;-70
2023/11/12 10:52:26;;;;;;;22.53;12.67;;;;;;;6.46;69.90;95419.44;5021912;28;21166;-70
2023/11/12 10:54:51;;;;;;;29.73;13.40;;;;;;;6.50;69.42;95420.19;5009501;28;20227;-70
2023/11/12 10:57:23;;;;;;;22.13;13.00;;;;;;;6.61;69.61;95422.28;5015060;28;20846;-69
2023/11/12 10:59:51;;;;;;;21.40;12.13;;;;;;;6.68;68.73;95423.72;5017218;28;20298;-69
2023/11/12 11:02:18;;;;;;;22.83;12.90;;;;;;;6.76;68.47;95427.69;5017993;28;20525;-70
2023/11/12 11:04:47;;;;;;;20.80;12.13;;;;;;;6.82;68.55;95417.91;5018584;28;21073;-72
2023/11/12 11:07:13;;;;;;;22.13;11.57;;;;;;;6.87;68.84;95421.97;5019841;28;20446;-71
2023/11/12 11:09:39;;;;;;;21.57;10.83;;;;;;;6.96;68.63;95428.56;5019205;28;20461;-70
2023/11/12 11:12:05;;;;;;;17.23;11.23;;;;;;;6.92;67.86;95425.25;5014300;28;20427;-72
2023/11/12 11:14:34;;;;;;;17.40;10.30;;;;;;;6.98;67.12;95422.34;5020057;28;21116;-70
2023/11/12 11:16:59;;;;;;;18.30;10.23;;;;;;;7.00;67.95;95428.34;5016683;28;20719;-71
2023/11/12 11:19:43;;;;;;;13.20;8.50;;;;;;;6.73;68.48;95432.19;5021532;28;20478;-72
2023/11/12 11:22:33;;;;;;;15.27;7.90;;;;;;;7.14;68.36;95424.28;5022349;28;21065;-70
2023/11/12 11:25:19;;;;;;;24.00;8.20;;;;;;;7.06;66.82;95422.00;5023539;28;20832;-70
2023/11/12 11:27:50;;;;;;;10.63;7.10;;;;;;;6.91;67.35;95418.31;5022581;28;20438;-70
2023/11/12 11:30:16;;;;;;;12.87;7.87;;;;;;;6.90;67.29;95423.63;5017230;28;20540;-70
2023/11/12 11:32:59;;;;;;;10.00;6.60;;;;;;;6.86;66.95;95422.91;5022509;28;20840;-70